Time;durP1;ratioP1;P1;durP2;ratioP2;P2;SDS_P1;SDS_P2;PMS_P1;PMS_P2;Temp;Humidity;BMP_temperature;BMP_pressure;BME280_temperature;BME280_humidity;BME280_pressure;Samples;Min_cycle;Max_cycle;Signal;HPM_P1;HPM_P2
2023/05/28 00:01:17;;;;;;;12.82;4.68;;;;;;;19.70;53.37;98281.50;4474231;32;20144;-80
2023/05/28 00:03:44;;;;;;;13.40;4.30;;;;;;;19.93;53.27;98282.34;4474402;32;20367;-80
2023/05/28 00:06:11;;;;;;;13.55;4.55;;;;;;;20.26;52.47;98280.69;4474345;32;20103;-80
2023/05/28 00:08:38;;;;;;;11.68;4.22;;;;;;;20.07;52.90;98271.63;4474296;32;20461;-80
2023/05/28 00:11:05;;;;;;;12.27;4.55;;;;;;;20.13;52.70;98278.19;4474503;32;20450;-80
2023/05/28 00:13:33;;;;;;;12.35;4.32;;;;;;;20.90;50.62;98276.41;4474657;32;20060;-80
2023/05/28 00:16:00;;;;;;;12.93;4.80;;;;;;;19.98;52.78;98279.37;4473799;32;20076;-80
2023/05/28 00:18:28;;;;;;;12.25;4.80;;;;;;;20.03;53.10;98274.62;4473718;32;20057;-80
2023/05/28 00:20:55;;;;;;;13.80;4.47;;;;;;;21.17;49.95;98275.12;4473493;32;20108;-80
2023/05/28 00:23:22;;;;;;;13.15;4.32;;;;;;;20.76;50.17;98274.91;4473696;32;20084;-80
2023/05/28 00:25:49;;;;;;;13.40;4.65;;;;;;;20.56;50.30;98272.22;4473609;32;20149;-80
2023/05/28 00:28:17;;;;;;;14.43;4.45;;;;;;;20.68;50.56;98274.69;4473263;32;20464;-80
2023/05/28 00:30:44;;;;;;;13.07;4.60;;;;;;;20.79;49.36;98272.03;4473422;32;20577;-80
2023/05/28 00:33:11;;;;;;;12.35;4.25;;;;;;;19.87;51.43;98269.72;4473802;32;20457;-80
2023/05/28 00:35:38;;;;;;;11.32;4.55;;;;;;;20.31;50.50;98263.66;4473094;32;20085;-80
2023/05/28 00:38:05;;;;;;;13.62;4.80;;;;;;;19.70;52.00;98262.34;4473685;32;20160;-80
2023/05/28 00:40:31;;;;;;;17.17;5.07;;;;;;;19.60;52.48;98257.81;4473602;32;20088;-80
2023/05/28 00:42:58;;;;;;;13.43;4.68;;;;;;;19.53;52.93;98256.56;4473066;32;20477;-80
2023/05/28 00:45:25;;;;;;;11.85;4.85;;;;;;;20.19;51.79;98254.13;4473646;32;20085;-80
2023/05/28 00:47:52;;;;;;;14.52;5.00;;;;;;;20.26;51.63;98249.25;4473019;32;20104;-80
2023/05/28 00:50:20;;;;;;;12.98;5.00;;;;;;;19.77;52.88;98253.88;4472573;32;20164;-80
2023/05/28 00:52:49;;;;;;;14.05;5.05;;;;;;;20.36;51.71;98242.31;4473518;32;20104;-80
2023/05/28 00:55:16;;;;;;;15.65;5.43;;;;;;;20.05;52.57;98241.28;4472976;32;20796;-80
2023/05/28 00:57:45;;;;;;;17.92;5.68;;;;;;;20.34;52.28;98239.81;4472966;32;20061;-80
2023/05/28 01:00:13;;;;;;;15.68;5.37;;;;;;;19.88;52.76;98239.97;4459316;32;20820;-80
2023/05/28 01:02:41;;;;;;;13.82;5.22;;;;;;;20.66;50.80;98239.06;4473665;32;20138;-79
2023/05/28 01:05:09;;;;;;;15.63;4.90;;;;;;;20.35;50.93;98231.00;4473218;32;20146;-79
2023/05/28 01:07:36;;;;;;;11.63;4.22;;;;;;;19.42;53.65;98234.78;4473205;32;20128;-80
2023/05/28 01:10:03;;;;;;;12.73;4.07;;;;;;;19.24;52.53;98240.44;4473007;32;20140;-80
2023/05/28 01:12:31;;;;;;;12.70;4.60;;;;;;;18.84;53.18;98241.75;4473730;32;20110;-80
2023/05/28 01:14:58;;;;;;;12.05;4.40;;;;;;;17.56;57.71;98246.38;4468748;32;143450;-80
2023/05/28 01:17:25;;;;;;;10.95;4.37;;;;;;;18.16;56.04;98236.09;4473919;32;20103;-80
2023/05/28 01:19:53;;;;;;;12.52;4.07;;;;;;;18.20;56.33;98237.56;4459930;32;20135;-79
2023/05/28 01:22:24;;;;;;;15.15;5.07;;;;;;;17.59;57.85;98241.78;4473967;32;20599;-79
2023/05/28 01:24:54;;;;;;;13.60;4.50;;;;;;;17.78;58.68;98230.94;4459829;32;20790;-80
2023/05/28 01:27:21;;;;;;;13.25;4.55;;;;;;;18.33;57.32;98232.28;4473883;32;20160;-80
2023/05/28 01:29:48;;;;;;;16.08;4.70;;;;;;;18.42;57.28;98226.41;4473752;32;20109;-80
2023/05/28 01:32:14;;;;;;;15.68;4.47;;;;;;;18.71;56.58;98229.53;4473575;32;20104;-79
2023/05/28 01:34:41;;;;;;;12.32;4.10;;;;;;;18.46;56.83;98227.84;4474307;32;20101;-79
2023/05/28 01:37:10;;;;;;;13.00;4.47;;;;;;;18.89;56.09;98223.94;4460300;32;20526;-79
2023/05/28 01:39:43;;;;;;;12.63;4.80;;;;;;;18.94;55.54;98219.22;4473472;32;20111;-80
2023/05/28 01:42:10;;;;;;;14.70;4.45;;;;;;;19.14;54.81;98220.31;4474213;32;20116;-80
2023/05/28 01:44:37;;;;;;;14.70;4.70;;;;;;;19.34;53.50;98217.87;4459820;32;20101;-80
2023/05/28 01:47:05;;;;;;;13.18;4.28;;;;;;;18.89;54.32;98211.69;4473581;32;20092;-80
2023/05/28 01:49:32;;;;;;;12.85;4.57;;;;;;;19.40;51.42;98218.37;4474014;32;20165;-80
2023/05/28 01:52:02;;;;;;;11.70;4.32;;;;;;;18.72;53.46;98217.34;4474266;32;20767;-80
2023/05/28 01:54:29;;;;;;;13.95;4.12;;;;;;;18.52;54.66;98218.75;4474130;32;20067;-80
2023/05/28 01:56:56;;;;;;;10.40;3.90;;;;;;;18.11;55.62;98212.09;4473648;32;20085;-80
2023/05/28 01:59:25;;;;;;;16.25;4.65;;;;;;;18.06;55.92;98205.50;4473057;32;20163;-80
2023/05/28 02:01:52;;;;;;;15.55;4.93;;;;;;;18.39;55.45;98194.44;4473757;32;20096;-80
2023/05/28 02:04:19;;;;;;;11.48;4.65;;;;;;;18.87;54.52;98203.13;4473573;32;20149;-80
2023/05/28 02:06:47;;;;;;;10.90;4.10;;;;;;;18.77;54.52;98199.53;4473675;32;20076;-80
2023/05/28 02:09:13;;;;;;;15.45;4.22;;;;;;;18.77;54.61;98202.97;4472902;32;20105;-80
2023/05/28 02:11:40;;;;;;;14.10;4.05;;;;;;;18.35;54.50;98199.06;4474118;32;20157;-80
2023/05/28 02:14:08;;;;;;;9.98;3.75;;;;;;;17.89;55.91;98199.72;4473264;32;20400;-80
2023/05/28 02:16:35;;;;;;;12.60;4.50;;;;;;;17.82;55.72;98197.63;4473590;32;20116;-79
2023/05/28 02:19:03;;;;;;;13.45;4.62;;;;;;;18.11;55.32;98195.59;4473559;32;20097;-80
2023/05/28 02:21:30;;;;;;;13.10;4.00;;;;;;;17.87;56.08;98195.56;4473438;32;20743;-80
2023/05/28 02:23:57;;;;;;;13.05;5.15;;;;;;;18.32;55.39;98195.84;4473519;32;20081;-80
2023/05/28 02:26:25;;;;;;;11.70;4.43;;;;;;;18.08;56.62;98190.59;4473571;32;20103;-80
2023/05/28 02:28:52;;;;;;;11.85;4.28;;;;;;;17.35;59.39;98207.75;4473282;32;20160;-80
2023/05/28 02:31:19;;;;;;;18.92;4.70;;;;;;;17.31;59.59;98198.47;4473658;32;20096;-80
2023/05/28 02:33:46;;;;;;;12.75;4.95;;;;;;;17.50;59.54;98208.47;4473569;32;20076;-80
2023/05/28 02:36:13;;;;;;;13.57;4.32;;;;;;;17.78;58.85;98202.25;4473386;32;20147;-80
2023/05/28 02:38:41;;;;;;;13.88;4.40;;;;;;;17.97;58.18;98204.41;4473500;32;20156;-80
2023/05/28 02:41:08;;;;;;;15.50;4.35;;;;;;;17.85;58.43;98198.25;4459109;32;20096;-80
2023/05/28 02:43:35;;;;;;;16.67;5.20;;;;;;;17.56;59.54;98188.97;4459342;32;20091;-80
2023/05/28 02:46:03;;;;;;;10.95;4.18;;;;;;;18.00;58.54;98195.53;4473297;32;20103;-80
2023/05/28 02:48:30;;;;;;;12.65;4.28;;;;;;;18.38;55.09;98203.22;4472741;32;20709;-80
2023/05/28 02:50:57;;;;;;;12.68;4.75;;;;;;;18.25;55.52;98199.81;4473175;32;20093;-80
2023/05/28 02:53:29;;;;;;;12.25;4.80;;;;;;;17.99;56.09;98196.47;4473116;32;20419;-80
2023/05/28 02:55:56;;;;;;;12.52;4.20;;;;;;;18.10;56.18;98193.94;4472737;32;20084;-80
2023/05/28 02:58:23;;;;;;;11.82;3.85;;;;;;;18.02;56.43;98201.47;4472930;32;20391;-80
2023/05/28 03:00:50;;;;;;;13.23;4.22;;;;;;;17.84;57.02;98201.78;4473077;32;20148;-80
2023/05/28 03:03:17;;;;;;;15.35;4.28;;;;;;;17.86;56.85;98201.69;4472826;32;20153;-80
2023/05/28 03:05:45;;;;;;;14.77;4.43;;;;;;;17.90;57.27;98195.31;4459312;32;20444;-80
2023/05/28 03:08:11;;;;;;;10.32;4.03;;;;;;;17.86;57.46;98186.87;4459121;32;20157;-80
2023/05/28 03:10:38;;;;;;;14.52;4.37;;;;;;;18.28;56.11;98191.75;4472704;32;20076;-80
2023/05/28 03:13:05;;;;;;;11.57;4.28;;;;;;;18.05;57.13;98186.41;4472850;32;20081;-80
2023/05/28 03:15:32;;;;;;;14.57;4.30;;;;;;;18.29;55.88;98194.28;4472320;32;20489;-80
2023/05/28 03:17:59;;;;;;;11.00;4.05;;;;;;;18.11;56.08;98193.81;4472389;32;20085;-80
2023/05/28 03:20:26;;;;;;;11.55;3.97;;;;;;;18.73;54.55;98195.47;4472752;32;20123;-80
2023/05/28 03:22:57;;;;;;;12.63;4.55;;;;;;;18.44;55.79;98200.19;4474629;32;20147;-80
2023/05/28 03:25:25;;;;;;;11.38;4.18;;;;;;;17.87;56.86;98192.94;4474454;32;20497;-80
2023/05/28 03:27:53;;;;;;;15.55;4.07;;;;;;;17.53;57.89;98208.25;4474653;32;20093;-80
2023/05/28 03:30:23;;;;;;;11.65;4.20;;;;;;;18.28;55.87;98207.44;4474277;32;20057;-80
2023/05/28 03:32:50;;;;;;;15.98;4.30;;;;;;;17.71;57.89;98203.59;4475150;32;20084;-80
2023/05/28 03:35:17;;;;;;;11.23;3.70;;;;;;;17.89;57.32;98209.31;4474821;32;20099;-80
2023/05/28 03:37:45;;;;;;;15.88;3.87;;;;;;;18.06;56.78;98211.56;4474527;32;20097;-80
2023/05/28 03:40:12;;;;;;;12.90;3.90;;;;;;;18.02;57.18;98210.13;4474742;32;20147;-80
2023/05/28 03:42:39;;;;;;;12.32;4.55;;;;;;;18.12;56.93;98215.53;4474636;32;20086;-80
2023/05/28 03:45:06;;;;;;;11.15;4.10;;;;;;;18.25;56.25;98212.88;4474482;32;20073;-80
2023/05/28 03:47:34;;;;;;;11.90;4.05;;;;;;;18.76;54.85;98214.38;4474924;32;20074;-80
2023/05/28 03:50:04;;;;;;;11.48;4.10;;;;;;;18.38;56.99;98209.28;4474511;32;20080;-80
2023/05/28 03:52:32;;;;;;;15.20;4.03;;;;;;;18.65;56.98;98216.09;4474730;32;20068;-80
2023/05/28 03:54:59;;;;;;;11.35;3.78;;;;;;;18.88;56.44;98215.25;4474776;32;20081;-80
2023/05/28 03:57:26;;;;;;;11.93;3.87;;;;;;;19.41;55.03;98215.63;4474655;32;20222;-80
2023/05/28 03:59:55;;;;;;;11.73;3.40;;;;;;;19.90;52.30;98214.50;4474271;32;20092;-80
2023/05/28 04:02:23;;;;;;;10.82;3.62;;;;;;;20.92;49.12;98223.81;4474811;32;20099;-80
2023/05/28 04:04:50;;;;;;;12.27;3.90;;;;;;;21.18;47.78;98217.25;4474303;32;20158;-80
2023/05/28 04:07:17;;;;;;;12.07;3.58;;;;;;;21.81;45.57;98223.31;4474063;32;20144;-80
2023/05/28 04:09:44;;;;;;;11.35;3.60;;;;;;;20.50;48.24;98219.31;4474088;32;20164;-80
2023/05/28 04:12:12;;;;;;;11.75;3.60;;;;;;;20.70;48.39;98219.50;4474182;32;20100;-80
2023/05/28 04:14:40;;;;;;;11.15;3.47;;;;;;;20.31;49.61;98221.72;4474399;32;20700;-80
2023/05/28 04:17:12;;;;;;;10.43;3.30;;;;;;;20.71;48.00;98219.38;4473811;32;20153;-80
2023/05/28 04:19:40;;;;;;;8.75;3.25;;;;;;;21.11;47.89;98225.75;4473885;32;20138;-80
2023/05/28 04:22:08;;;;;;;11.35;3.62;;;;;;;21.39;46.97;98226.97;4474305;32;20096;-80
2023/05/28 04:24:35;;;;;;;9.30;3.65;;;;;;;21.94;46.06;98220.47;4474033;32;20155;-80
2023/05/28 04:27:02;;;;;;;9.88;3.08;;;;;;;22.20;45.48;98232.19;4474121;32;20112;-80
2023/05/28 04:29:30;;;;;;;11.70;3.25;;;;;;;22.13;45.62;98225.00;4474152;32;20105;-80
2023/05/28 04:31:57;;;;;;;10.20;3.03;;;;;;;22.68;44.05;98223.56;4473740;32;20423;-80
2023/05/28 04:34:25;;;;;;;11.80;3.67;;;;;;;23.00;43.43;98236.50;4473685;32;20111;-80
2023/05/28 04:36:52;;;;;;;11.32;3.92;;;;;;;23.60;42.39;98226.56;4474276;32;20104;-80
2023/05/28 04:39:23;;;;;;;9.85;3.80;;;;;;;24.16;41.72;98225.69;4474392;32;20128;-80
2023/05/28 04:41:51;;;;;;;11.70;3.53;;;;;;;24.77;40.91;98219.75;4474591;32;20104;-80
2023/05/28 04:44:17;;;;;;;12.50;4.25;;;;;;;25.33;40.11;98228.34;4474759;32;20086;-80
2023/05/28 04:46:45;;;;;;;10.90;3.87;;;;;;;26.35;37.67;98225.75;4474847;32;20149;-80
2023/05/28 04:49:12;;;;;;;10.55;3.87;;;;;;;26.91;36.52;98244.59;4474972;32;20555;-80
2023/05/28 04:51:39;;;;;;;9.60;3.70;;;;;;;27.41;35.12;98233.03;4475760;32;20080;-80
2023/05/28 04:54:07;;;;;;;9.80;3.42;;;;;;;28.12;33.30;98229.56;4475636;32;20111;-80
2023/05/28 04:56:35;;;;;;;12.95;4.00;;;;;;;28.49;34.37;98229.72;4475046;32;20100;-81
2023/05/28 04:59:04;;;;;;;9.63;3.80;;;;;;;28.52;35.79;98233.88;4475958;32;20709;-81
2023/05/28 05:01:34;;;;;;;12.80;3.33;;;;;;;29.32;34.58;98230.81;4475569;32;20089;-81
2023/05/28 05:04:03;;;;;;;9.50;3.67;;;;;;;30.17;31.73;98241.09;4475854;32;20134;-81
2023/05/28 05:06:30;;;;;;;9.38;3.50;;;;;;;29.99;31.94;98235.31;4475988;32;20061;-81
2023/05/28 05:08:57;;;;;;;9.32;3.55;;;;;;;30.32;30.41;98239.28;4475576;32;20175;-81
2023/05/28 05:11:24;;;;;;;8.93;3.53;;;;;;;30.06;30.46;98234.44;4476203;32;20828;-81
2023/05/28 05:13:51;;;;;;;11.10;3.95;;;;;;;30.27;30.20;98231.00;4476223;32;20074;-81
2023/05/28 05:16:19;;;;;;;17.83;4.15;;;;;;;30.47;30.13;98233.91;4475865;32;20553;-81
2023/05/28 05:18:47;;;;;;;10.70;3.30;;;;;;;30.93;29.39;98242.41;4476526;32;20073;-81
2023/05/28 05:21:14;;;;;;;11.60;4.05;;;;;;;31.41;28.79;98240.00;4476011;32;20093;-81
2023/05/28 05:23:41;;;;;;;9.45;3.40;;;;;;;31.52;29.19;98239.47;4476702;32;20153;-81
2023/05/28 05:26:12;;;;;;;10.70;3.67;;;;;;;31.76;28.78;98240.87;4477236;32;20085;-81
2023/05/28 05:28:41;;;;;;;11.45;3.53;;;;;;;31.83;28.78;98238.25;4476432;32;20126;-81
2023/05/28 05:31:11;;;;;;;11.85;3.80;;;;;;;32.49;27.87;98242.09;4476240;32;20068;-81
2023/05/28 05:33:40;;;;;;;10.10;3.65;;;;;;;33.11;26.69;98240.19;4477287;32;20131;-81
2023/05/28 05:36:08;;;;;;;9.77;3.87;;;;;;;33.51;26.25;98229.53;4476975;32;20404;-81
2023/05/28 05:38:36;;;;;;;10.25;3.83;;;;;;;33.73;25.11;98238.13;4463187;32;20132;-81
2023/05/28 05:41:03;;;;;;;10.30;3.97;;;;;;;33.71;25.86;98235.69;4477696;32;20140;-82
2023/05/28 05:43:30;;;;;;;10.35;3.83;;;;;;;32.98;26.80;98233.00;4477088;32;20114;-82
2023/05/28 05:45:56;;;;;;;10.57;3.55;;;;;;;32.71;26.73;98226.75;4478263;32;20153;-81
2023/05/28 05:48:27;;;;;;;10.57;4.10;;;;;;;31.65;27.01;98233.41;4478688;32;20122;-81
2023/05/28 05:50:55;;;;;;;12.37;3.62;;;;;;;31.61;27.73;98232.97;4478831;32;20075;-81
2023/05/28 05:53:22;;;;;;;12.95;4.22;;;;;;;30.19;30.24;98229.25;4478918;32;20700;-81
2023/05/28 05:55:49;;;;;;;10.68;4.43;;;;;;;28.79;32.71;98224.56;4478881;32;20076;-81
2023/05/28 05:58:16;;;;;;;11.48;3.87;;;;;;;28.55;33.53;98220.25;4478770;32;20068;-81
2023/05/28 06:00:44;;;;;;;11.05;3.60;;;;;;;28.14;33.38;98224.91;4478933;32;20099;-81
2023/05/28 06:03:11;;;;;;;11.85;3.67;;;;;;;28.40;32.02;98227.31;4478757;32;20092;-81
2023/05/28 06:05:38;;;;;;;10.15;3.20;;;;;;;28.67;31.64;98226.81;4479008;32;20065;-81
2023/05/28 06:08:05;;;;;;;11.00;3.70;;;;;;;27.71;31.44;98229.69;4479452;32;20136;-81
2023/05/28 06:10:32;;;;;;;10.27;3.72;;;;;;;26.24;34.02;98234.78;4479976;32;20085;-81
2023/05/28 06:13:02;;;;;;;10.52;3.72;;;;;;;26.80;33.56;98235.16;4479943;32;20768;-81
2023/05/28 06:15:29;;;;;;;10.27;3.62;;;;;;;27.28;33.89;98231.72;4479600;32;20109;-80
2023/05/28 06:17:56;;;;;;;10.20;3.60;;;;;;;26.13;35.56;98229.78;4480079;32;20144;-81
2023/05/28 06:20:25;;;;;;;10.00;3.62;;;;;;;26.21;34.67;98229.00;4479256;32;20110;-81
2023/05/28 06:22:53;;;;;;;9.55;3.42;;;;;;;25.13;36.15;98232.16;4479405;32;20069;-81
2023/05/28 06:25:21;;;;;;;9.77;3.40;;;;;;;26.83;33.23;98234.81;4479179;32;20088;-81
2023/05/28 06:27:49;;;;;;;9.23;2.92;;;;;;;25.53;34.18;98227.16;4478303;32;20107;-81
2023/05/28 06:30:16;;;;;;;12.70;3.28;;;;;;;25.97;34.24;98232.37;4478700;32;20080;-81
2023/05/28 06:32:43;;;;;;;8.70;3.15;;;;;;;26.52;33.07;98234.59;4478435;32;20076;-81
2023/05/28 06:35:10;;;;;;;10.73;3.45;;;;;;;25.89;34.37;98234.97;4478785;32;20088;-81
2023/05/28 06:37:37;;;;;;;10.43;3.40;;;;;;;25.20;35.45;98230.53;4478206;32;20119;-81
2023/05/28 06:40:09;;;;;;;9.65;3.15;;;;;;;24.46;35.16;98229.00;4478121;32;20097;-81
2023/05/28 06:42:38;;;;;;;10.85;3.55;;;;;;;24.15;36.07;98228.47;4478558;32;20076;-81
2023/05/28 06:45:06;;;;;;;12.23;3.10;;;;;;;23.78;37.39;98231.09;4478344;32;20108;-81
2023/05/28 06:47:33;;;;;;;14.07;4.18;;;;;;;23.75;38.89;98237.50;4478079;32;20061;-81
2023/05/28 06:50:00;;;;;;;7.87;3.25;;;;;;;24.79;37.44;98230.16;4477953;32;20138;-81
2023/05/28 06:52:28;;;;;;;9.73;3.40;;;;;;;23.14;37.73;98237.84;4477549;32;20076;-81
2023/05/28 06:54:55;;;;;;;7.53;3.10;;;;;;;24.40;37.08;98232.22;4477966;32;20096;-81
2023/05/28 06:57:22;;;;;;;12.07;3.45;;;;;;;25.30;35.54;98237.38;4478242;32;20112;-81
2023/05/28 06:59:49;;;;;;;11.93;3.50;;;;;;;25.72;34.67;98238.50;4478694;32;20056;-81
2023/05/28 07:02:16;;;;;;;12.02;3.55;;;;;;;26.07;35.25;98227.81;4478413;32;20108;-81
2023/05/28 07:04:43;;;;;;;10.77;3.37;;;;;;;26.97;31.63;98238.63;4479793;32;20519;-81
2023/05/28 07:07:10;;;;;;;8.48;3.15;;;;;;;25.55;33.50;98230.47;4478291;32;20145;-81
2023/05/28 07:09:38;;;;;;;10.30;3.45;;;;;;;26.36;33.87;98235.31;4477238;32;20105;-81
2023/05/28 07:12:05;;;;;;;9.93;3.33;;;;;;;26.28;34.13;98232.69;4479177;32;20099;-81
2023/05/28 07:14:32;;;;;;;8.07;3.20;;;;;;;25.31;35.65;98231.13;4479116;32;20062;-81
2023/05/28 07:16:59;;;;;;;11.80;3.35;;;;;;;25.28;35.35;98231.44;4478293;32;20108;-81
2023/05/28 07:19:26;;;;;;;11.90;3.70;;;;;;;25.49;34.98;98222.31;4478205;32;20076;-81
2023/05/28 07:21:53;;;;;;;8.82;2.83;;;;;;;25.54;35.62;98231.47;4478569;32;20085;-81
2023/05/28 07:24:20;;;;;;;9.10;2.92;;;;;;;26.90;34.09;98233.16;4478914;32;20097;-81
2023/05/28 07:26:47;;;;;;;9.48;3.40;;;;;;;27.92;31.07;98243.22;4480721;32;20140;-81
2023/05/28 07:29:18;;;;;;;8.95;3.03;;;;;;;28.09;29.90;98236.03;4482651;32;20079;-81
2023/05/28 07:31:45;;;;;;;10.73;3.37;;;;;;;27.86;31.49;98233.31;4482296;32;20057;-81
2023/05/28 07:34:12;;;;;;;10.32;3.35;;;;;;;25.98;33.70;98234.03;4480281;32;20085;-81
2023/05/28 07:36:39;;;;;;;11.02;3.50;;;;;;;26.77;34.52;98236.28;4479113;32;20097;-81
2023/05/28 07:39:06;;;;;;;9.23;3.28;;;;;;;26.93;32.78;98239.97;4480959;32;20101;-81
2023/05/28 07:41:34;;;;;;;10.32;3.12;;;;;;;27.38;32.58;98235.00;4481186;32;20057;-81
2023/05/28 07:44:01;;;;;;;12.43;4.03;;;;;;;27.20;32.52;98239.66;4479867;32;20065;-81
2023/05/28 07:46:28;;;;;;;11.90;3.70;;;;;;;26.21;33.80;98231.66;4481995;32;20147;-81
2023/05/28 07:49:06;;;;;;;11.18;3.50;;;;;;;25.30;36.48;98234.72;4483752;32;20066;-81
2023/05/28 07:51:33;;;;;;;11.55;3.53;;;;;;;27.46;32.58;98243.97;4485140;32;20069;-81
2023/05/28 07:54:00;;;;;;;10.60;3.62;;;;;;;27.57;33.37;98230.34;4485032;32;20061;-81
2023/05/28 07:56:27;;;;;;;11.93;3.55;;;;;;;27.62;34.53;98239.44;4484584;32;20049;-81
2023/05/28 07:58:55;;;;;;;9.00;3.25;;;;;;;25.79;36.92;98229.81;4481193;32;20164;-81
2023/05/28 08:01:23;;;;;;;11.25;3.80;;;;;;;26.95;34.64;98238.81;4482500;32;20053;-81
2023/05/28 08:03:53;;;;;;;12.88;3.87;;;;;;;26.99;34.69;98234.81;4485075;32;20109;-81
2023/05/28 08:06:21;;;;;;;9.52;3.50;;;;;;;28.46;31.49;98229.25;4472379;32;20126;-81
2023/05/28 08:08:48;;;;;;;11.95;3.67;;;;;;;28.18;32.23;98232.37;4486337;32;20934;-81
2023/05/28 08:11:15;;;;;;;9.50;3.78;;;;;;;28.09;32.13;98227.25;4486561;32;20432;-81
2023/05/28 08:13:42;;;;;;;10.60;4.00;;;;;;;27.16;33.99;98237.50;4487165;32;20110;-81
2023/05/28 08:16:12;;;;;;;11.45;3.62;;;;;;;26.62;34.59;98232.63;4487350;32;20136;-82
2023/05/28 08:22:11;;;;;;;11.90;4.00;;;;;;;28.26;33.20;98226.16;4487679;32;20147;-82
2023/05/28 08:24:38;;;;;;;12.10;3.67;;;;;;;29.26;30.57;98229.72;4487750;32;20118;-81
2023/05/28 08:27:06;;;;;;;12.45;3.80;;;;;;;28.33;33.60;98224.53;4487417;32;20149;-81
2023/05/28 08:29:43;;;;;;;12.25;3.70;;;;;;;27.79;32.55;98221.72;4487393;32;20069;-81
2023/05/28 08:32:10;;;;;;;8.75;3.60;;;;;;;28.70;30.75;98222.97;4487465;32;20129;-81
2023/05/28 08:34:38;;;;;;;11.98;3.62;;;;;;;29.54;31.63;98221.16;4487477;32;20061;-81
2023/05/28 08:37:06;;;;;;;9.55;3.22;;;;;;;28.98;31.28;98220.66;4487517;32;20065;-82
2023/05/28 08:39:40;;;;;;;12.52;3.65;;;;;;;29.32;29.86;98218.34;4487201;32;20057;-81
2023/05/28 08:42:07;;;;;;;10.85;3.55;;;;;;;30.05;30.10;98215.97;4487379;32;20061;-82
2023/05/28 08:44:34;;;;;;;12.02;3.72;;;;;;;29.55;30.13;98217.50;4487308;32;20095;-81
2023/05/28 08:47:01;;;;;;;10.13;3.55;;;;;;;29.17;30.76;98217.50;4486447;32;20109;-81
2023/05/28 08:49:51;;;;;;;9.80;3.37;;;;;;;28.95;31.47;98215.69;4483125;32;20061;-81
2023/05/28 08:52:20;;;;;;;11.50;3.55;;;;;;;29.43;29.93;98216.25;4484860;32;20105;-82
2023/05/28 08:54:47;;;;;;;11.00;3.78;;;;;;;30.01;31.01;98212.84;4484879;32;20105;-81
2023/05/28 08:57:14;;;;;;;9.98;3.90;;;;;;;29.59;30.05;98208.19;4485024;32;20108;-82
2023/05/28 08:59:42;;;;;;;11.60;3.80;;;;;;;30.59;30.14;98213.75;4471197;32;20065;-81
2023/05/28 09:02:11;;;;;;;9.82;3.28;;;;;;;29.59;31.13;98214.31;4484540;32;20076;-81
2023/05/28 09:04:38;;;;;;;11.45;3.92;;;;;;;30.12;30.43;98204.44;4484580;32;20068;-82
2023/05/28 09:07:05;;;;;;;10.10;4.00;;;;;;;29.38;30.32;98208.84;4484588;32;20101;-81
2023/05/28 09:09:33;;;;;;;8.18;3.50;;;;;;;30.82;29.18;98213.59;4484794;32;20093;-81
2023/05/28 09:12:07;;;;;;;10.68;3.80;;;;;;;27.42;34.82;98202.87;4471370;32;20057;-81
2023/05/28 09:14:41;;;;;;;11.63;3.97;;;;;;;27.43;33.58;98201.87;4484653;32;20053;-81
2023/05/28 09:17:08;;;;;;;10.07;3.40;;;;;;;29.16;30.77;98199.09;4484689;32;20101;-81
2023/05/28 09:19:36;;;;;;;9.60;3.70;;;;;;;28.44;32.20;98197.59;4483738;32;20062;-81
2023/05/28 09:22:04;;;;;;;12.10;3.45;;;;;;;29.33;32.06;98187.28;4483277;32;20096;-82
2023/05/28 09:24:31;;;;;;;9.90;3.35;;;;;;;28.92;31.69;98192.97;4483666;32;20119;-82
2023/05/28 09:26:58;;;;;;;8.05;3.67;;;;;;;28.06;32.83;98185.16;4485033;32;20088;-81
2023/05/28 09:33:08;;;;;;;11.07;3.95;;;;;;;30.49;28.75;98183.94;4487226;32;20076;-81
2023/05/28 09:35:36;;;;;;;10.82;3.72;;;;;;;30.35;29.56;98196.31;4486973;32;20080;-81
2023/05/28 09:38:05;;;;;;;10.98;3.50;;;;;;;29.26;31.29;98189.03;4486854;32;20077;-81
2023/05/28 09:40:40;;;;;;;10.80;3.90;;;;;;;30.56;29.21;98184.84;4486858;32;20110;-82
2023/05/28 09:43:08;;;;;;;10.35;3.87;;;;;;;31.17;29.86;98189.75;4485912;32;20057;-82
2023/05/28 09:45:36;;;;;;;10.88;3.78;;;;;;;29.19;30.15;98186.25;4487105;32;20073;-81
2023/05/28 09:48:03;;;;;;;11.88;3.80;;;;;;;28.98;32.69;98170.19;4474007;32;20064;-81
2023/05/28 09:50:31;;;;;;;9.30;3.58;;;;;;;31.25;27.55;98176.28;4486952;32;20101;-81
2023/05/28 09:52:59;;;;;;;10.77;3.60;;;;;;;30.26;30.56;98176.12;4487133;32;20065;-81
2023/05/28 09:55:27;;;;;;;10.73;3.30;;;;;;;29.44;34.00;98170.91;4487036;32;20092;-81
2023/05/28 09:57:58;;;;;;;10.20;3.83;;;;;;;29.45;32.46;98169.88;4485539;32;20162;-82
2023/05/28 10:00:36;;;;;;;10.63;3.78;;;;;;;29.13;31.59;98181.66;4486600;32;20061;-81
2023/05/28 10:03:28;;;;;;;10.90;3.72;;;;;;;28.27;33.69;98172.09;4472797;32;20057;-81
2023/05/28 10:06:05;;;;;;;10.35;3.72;;;;;;;28.85;33.28;98173.41;4487060;32;20077;-81
2023/05/28 10:11:40;;;;;;;9.55;3.53;;;;;;;29.82;31.23;98173.50;4486848;32;19964;-81
2023/05/28 10:14:08;;;;;;;11.60;3.95;;;;;;;29.75;30.97;98172.59;4486938;32;20095;-81
2023/05/28 10:16:35;;;;;;;10.13;4.00;;;;;;;29.57;31.92;98173.81;4473332;32;20101;-81
2023/05/28 10:19:02;;;;;;;8.35;3.35;;;;;;;29.88;32.22;98170.09;4473463;32;20073;-81
2023/05/28 10:21:29;;;;;;;11.68;4.30;;;;;;;30.07;30.60;98174.88;4486712;32;20101;-81
2023/05/28 10:23:56;;;;;;;12.25;4.03;;;;;;;30.18;29.71;98176.22;4486797;32;20101;-81
2023/05/28 10:26:24;;;;;;;14.80;3.92;;;;;;;30.66;30.35;98168.59;4473406;32;20116;-81
2023/05/28 10:32:05;;;;;;;10.40;3.67;;;;;;;29.30;31.17;98169.06;4486616;32;20088;-81
2023/05/28 10:34:33;;;;;;;11.23;4.00;;;;;;;30.74;32.34;98166.63;4486789;32;20061;-81
2023/05/28 10:37:04;;;;;;;15.43;4.12;;;;;;;30.57;29.79;98167.88;4486645;32;20076;-81
2023/05/28 10:39:38;;;;;;;10.95;3.95;;;;;;;29.45;32.15;98158.44;4581791;26;20105;-81
2023/05/28 10:42:10;;;;;;;10.73;3.50;;;;;;;29.09;33.23;98151.16;4486603;32;20075;-81
2023/05/28 10:45:09;;;;;;;14.35;3.90;;;;;;;29.20;32.42;98153.38;4486602;32;20065;-81
2023/05/28 10:47:38;;;;;;;11.20;3.78;;;;;;;27.68;35.91;98147.88;4473908;32;20104;-81
2023/05/28 10:50:22;;;;;;;13.60;3.62;;;;;;;28.05;33.97;98146.38;4486370;32;20069;-81
2023/05/28 10:53:09;;;;;;;8.57;4.05;;;;;;;29.21;34.43;98138.25;4486489;32;20075;-81
2023/05/28 10:55:49;;;;;;;;;;;;;;;28.53;34.76;98139.97;4486876;32;20056;-81
2023/05/28 11:02:08;;;;;;;10.03;3.50;;;;;;;30.09;32.16;98148.91;4486408;32;20132;-81
2023/05/28 11:04:35;;;;;;;12.63;3.78;;;;;;;29.89;31.71;98139.84;4473388;32;20145;-81
2023/05/28 11:07:06;;;;;;;11.70;4.20;;;;;;;29.57;33.17;98141.06;4485969;32;20077;-81
2023/05/28 11:09:38;;;;;;;12.48;4.07;;;;;;;30.71;32.00;98139.53;4486046;32;20092;-81
2023/05/28 11:12:06;;;;;;;8.60;3.65;;;;;;;30.31;31.55;98130.34;4473283;32;20069;-81
2023/05/28 11:14:37;;;;;;;10.88;4.05;;;;;;;29.02;32.53;98140.41;4472875;32;20091;-81
2023/05/28 11:17:09;;;;;;;10.73;4.40;;;;;;;29.83;32.13;98132.59;4486157;32;20083;-81
2023/05/28 11:20:25;;;;;;;9.85;3.75;;;;;;;30.87;31.48;98138.47;4485933;32;20125;-81
2023/05/28 11:22:55;;;;;;;11.05;4.32;;;;;;;30.26;32.69;98141.53;4486166;32;20132;-81
2023/05/28 11:25:25;;;;;;;11.55;4.03;;;;;;;30.60;33.22;98134.69;4486005;32;20099;-81
2023/05/28 11:27:53;;;;;;;15.57;4.50;;;;;;;30.48;31.84;98135.22;4486009;32;20084;-81
2023/05/28 11:30:30;;;;;;;10.38;3.90;;;;;;;31.46;32.35;98124.75;4485936;32;20080;-81
2023/05/28 11:33:02;;;;;;;10.05;3.92;;;;;;;32.02;29.65;98121.97;4473012;32;20069;-81
2023/05/28 11:35:32;;;;;;;10.82;4.35;;;;;;;30.02;34.38;98109.91;4485905;32;20064;-81
2023/05/28 11:38:00;;;;;;;10.88;4.50;;;;;;;27.73;38.62;98108.41;4485848;32;20087;-81
2023/05/28 11:40:35;;;;;;;10.15;3.62;;;;;;;28.79;34.93;98107.72;4485468;32;20069;-81
2023/05/28 11:43:04;;;;;;;9.15;4.00;;;;;;;28.59;34.90;98110.06;4486993;32;20085;-81
2023/05/28 11:45:37;;;;;;;10.93;3.87;;;;;;;27.88;35.90;98098.72;4475010;32;20065;-81
2023/05/28 11:48:11;;;;;;;12.13;4.18;;;;;;;28.97;33.50;98102.97;4585908;26;20077;-80
2023/05/28 11:50:48;;;;;;;11.60;4.15;;;;;;;29.85;32.32;98101.31;4474489;32;20118;-81